sensor_id;sensor_type;location;lat;lon;timestamp;P1;durP1;ratioP1;P2;durP2;ratioP2
44204;SDS011;30163;42.698;23.344;2023-02-03T00:01:25;9.35;;;5.32;;
44204;SDS011;30163;42.698;23.344;2023-02-03T00:03:50;12.82;;;5.40;;
44204;SDS011;30163;42.698;23.344;2023-02-03T00:06:15;9.98;;;5.53;;
44204;SDS011;30163;42.698;23.344;2023-02-03T00:08:41;8.13;;;4.57;;
44204;SDS011;30163;42.698;23.344;2023-02-03T00:11:06;10.82;;;5.72;;
44204;SDS011;30163;42.698;23.344;2023-02-03T00:13:32;9.95;;;5.95;;
44204;SDS011;30163;42.698;23.344;2023-02-03T00:15:58;8.50;;;5.05;;
44204;SDS011;30163;42.698;23.344;2023-02-03T00:18:26;13.80;;;5.90;;
44204;SDS011;30163;42.698;23.344;2023-02-03T00:20:51;12.70;;;6.30;;
44204;SDS011;30163;42.698;23.344;2023-02-03T00:23:17;15.80;;;6.72;;
44204;SDS011;30163;42.698;23.344;2023-02-03T00:25:42;11.95;;;6.05;;
44204;SDS011;30163;42.698;23.344;2023-02-03T00:28:07;10.50;;;6.00;;
44204;SDS011;30163;42.698;23.344;2023-02-03T00:30:33;16.85;;;6.63;;
44204;SDS011;30163;42.698;23.344;2023-02-03T00:32:59;9.93;;;5.88;;
44204;SDS011;30163;42.698;23.344;2023-02-03T00:35:25;11.85;;;6.10;;
44204;SDS011;30163;42.698;23.344;2023-02-03T00:37:54;10.15;;;6.03;;
44204;SDS011;30163;42.698;23.344;2023-02-03T00:40:21;14.57;;;6.40;;
44204;SDS011;30163;42.698;23.344;2023-02-03T00:42:48;12.13;;;7.22;;
44204;SDS011;30163;42.698;23.344;2023-02-03T00:45:14;12.73;;;6.72;;
44204;SDS011;30163;42.698;23.344;2023-02-03T00:47:40;11.07;;;5.90;;
44204;SDS011;30163;42.698;23.344;2023-02-03T00:50:06;11.63;;;7.30;;
44204;SDS011;30163;42.698;23.344;2023-02-03T00:52:32;16.83;;;7.47;;
44204;SDS011;30163;42.698;23.344;2023-02-03T00:54:57;12.25;;;6.38;;
44204;SDS011;30163;42.698;23.344;2023-02-03T00:57:23;13.82;;;6.47;;
44204;SDS011;30163;42.698;23.344;2023-02-03T00:59:48;13.75;;;7.63;;
44204;SDS011;30163;42.698;23.344;2023-02-03T01:02:13;16.35;;;8.70;;
44204;SDS011;30163;42.698;23.344;2023-02-03T01:04:40;14.63;;;7.80;;
44204;SDS011;30163;42.698;23.344;2023-02-03T01:07:06;11.95;;;5.72;;
44204;SDS011;30163;42.698;23.344;2023-02-03T01:09:32;13.77;;;7.95;;
44204;SDS011;30163;42.698;23.344;2023-02-03T01:11:58;14.07;;;7.32;;
44204;SDS011;30163;42.698;23.344;2023-02-03T01:14:24;11.18;;;6.05;;
44204;SDS011;30163;42.698;23.344;2023-02-03T01:16:49;15.32;;;7.40;;
44204;SDS011;30163;42.698;23.344;2023-02-03T01:19:15;11.63;;;6.43;;
44204;SDS011;30163;42.698;23.344;2023-02-03T01:21:41;13.05;;;5.38;;
44204;SDS011;30163;42.698;23.344;2023-02-03T01:24:06;9.18;;;5.30;;
44204;SDS011;30163;42.698;23.344;2023-02-03T01:26:33;9.40;;;4.30;;
44204;SDS011;30163;42.698;23.344;2023-02-03T01:28:59;9.73;;;5.40;;
44204;SDS011;30163;42.698;23.344;2023-02-03T01:31:32;11.07;;;5.80;;
44204;SDS011;30163;42.698;23.344;2023-02-03T01:34:00;7.10;;;3.95;;
44204;SDS011;30163;42.698;23.344;2023-02-03T01:36:28;8.15;;;4.70;;
44204;SDS011;30163;42.698;23.344;2023-02-03T01:38:54;7.40;;;3.80;;
44204;SDS011;30163;42.698;23.344;2023-02-03T01:41:20;7.20;;;4.00;;
44204;SDS011;30163;42.698;23.344;2023-02-03T01:43:49;6.88;;;4.70;;
44204;SDS011;30163;42.698;23.344;2023-02-03T01:46:22;8.55;;;3.60;;
44204;SDS011;30163;42.698;23.344;2023-02-03T01:51:45;7.03;;;3.83;;
44204;SDS011;30163;42.698;23.344;2023-02-03T01:54:13;7.35;;;4.20;;
44204;SDS011;30163;42.698;23.344;2023-02-03T01:56:41;10.85;;;3.50;;
44204;SDS011;30163;42.698;23.344;2023-02-03T01:59:09;8.70;;;4.75;;
44204;SDS011;30163;42.698;23.344;2023-02-03T02:01:34;9.63;;;4.45;;
44204;SDS011;30163;42.698;23.344;2023-02-03T02:04:01;5.93;;;3.65;;
44204;SDS011;30163;42.698;23.344;2023-02-03T02:06:28;6.72;;;3.45;;
44204;SDS011;30163;42.698;23.344;2023-02-03T02:08:53;5.32;;;3.47;;
44204;SDS011;30163;42.698;23.344;2023-02-03T02:11:20;5.07;;;3.53;;
44204;SDS011;30163;42.698;23.344;2023-02-03T02:13:46;6.60;;;3.70;;
44204;SDS011;30163;42.698;23.344;2023-02-03T02:24:47;3.75;;;2.75;;
44204;SDS011;30163;42.698;23.344;2023-02-03T02:35:50;5.60;;;4.25;;
44204;SDS011;30163;42.698;23.344;2023-02-03T02:43:29;5.43;;;3.85;;
44204;SDS011;30163;42.698;23.344;2023-02-03T02:49:02;8.13;;;4.60;;
44204;SDS011;30163;42.698;23.344;2023-02-03T02:51:31;11.00;;;5.38;;
44204;SDS011;30163;42.698;23.344;2023-02-03T02:54:01;8.90;;;5.18;;
44204;SDS011;30163;42.698;23.344;2023-02-03T02:56:29;5.97;;;3.97;;
44204;SDS011;30163;42.698;23.344;2023-02-03T02:58:56;6.25;;;4.38;;
44204;SDS011;30163;42.698;23.344;2023-02-03T03:01:22;5.47;;;3.95;;
44204;SDS011;30163;42.698;23.344;2023-02-03T03:03:47;9.27;;;4.80;;
44204;SDS011;30163;42.698;23.344;2023-02-03T03:06:29;16.70;;;5.22;;
44204;SDS011;30163;42.698;23.344;2023-02-03T03:11:30;4.38;;;3.38;;
44204;SDS011;30163;42.698;23.344;2023-02-03T03:13:57;6.03;;;3.78;;
44204;SDS011;30163;42.698;23.344;2023-02-03T03:16:25;8.30;;;4.50;;
44204;SDS011;30163;42.698;23.344;2023-02-03T03:18:55;9.70;;;4.30;;
44204;SDS011;30163;42.698;23.344;2023-02-03T03:21:26;4.88;;;3.75;;
44204;SDS011;30163;42.698;23.344;2023-02-03T03:23:55;9.57;;;3.53;;
44204;SDS011;30163;42.698;23.344;2023-02-03T03:31:46;6.07;;;4.07;;
44204;SDS011;30163;42.698;23.344;2023-02-03T03:34:12;8.55;;;4.22;;
44204;SDS011;30163;42.698;23.344;2023-02-03T03:36:46;7.53;;;4.32;;
44204;SDS011;30163;42.698;23.344;2023-02-03T03:39:59;4.82;;;3.55;;
44204;SDS011;30163;42.698;23.344;2023-02-03T03:42:18;7.45;;;4.60;;
44204;SDS011;30163;42.698;23.344;2023-02-03T03:45:02;6.30;;;3.78;;
44204;SDS011;30163;42.698;23.344;2023-02-03T03:50:33;5.97;;;4.30;;
44204;SDS011;30163;42.698;23.344;2023-02-03T03:53:01;7.97;;;4.85;;
44204;SDS011;30163;42.698;23.344;2023-02-03T03:55:29;9.55;;;4.78;;
44204;SDS011;30163;42.698;23.344;2023-02-03T03:58:03;5.07;;;3.80;;
44204;SDS011;30163;42.698;23.344;2023-02-03T04:00:31;7.88;;;4.80;;
44204;SDS011;30163;42.698;23.344;2023-02-03T04:02:59;6.45;;;4.70;;
44204;SDS011;30163;42.698;23.344;2023-02-03T04:05:29;3.90;;;3.33;;
44204;SDS011;30163;42.698;23.344;2023-02-03T04:07:55;6.85;;;4.32;;
44204;SDS011;30163;42.698;23.344;2023-02-03T04:10:42;10.25;;;4.30;;
44204;SDS011;30163;42.698;23.344;2023-02-03T04:13:07;5.68;;;4.03;;
44204;SDS011;30163;42.698;23.344;2023-02-03T04:15:34;5.55;;;3.88;;
44204;SDS011;30163;42.698;23.344;2023-02-03T04:18:00;10.80;;;4.90;;
44204;SDS011;30163;42.698;23.344;2023-02-03T04:20:26;6.00;;;4.30;;
44204;SDS011;30163;42.698;23.344;2023-02-03T04:22:52;5.28;;;4.43;;
44204;SDS011;30163;42.698;23.344;2023-02-03T04:25:17;12.45;;;5.60;;
44204;SDS011;30163;42.698;23.344;2023-02-03T04:27:42;12.60;;;5.82;;
44204;SDS011;30163;42.698;23.344;2023-02-03T04:30:08;7.63;;;4.40;;
44204;SDS011;30163;42.698;23.344;2023-02-03T04:32:34;6.72;;;4.18;;
44204;SDS011;30163;42.698;23.344;2023-02-03T04:35:00;18.52;;;5.18;;
44204;SDS011;30163;42.698;23.344;2023-02-03T04:37:26;9.13;;;5.25;;
44204;SDS011;30163;42.698;23.344;2023-02-03T04:39:52;8.20;;;5.15;;
44204;SDS011;30163;42.698;23.344;2023-02-03T04:42:19;7.03;;;5.00;;
44204;SDS011;30163;42.698;23.344;2023-02-03T04:44:45;13.30;;;5.05;;
44204;SDS011;30163;42.698;23.344;2023-02-03T04:47:10;9.50;;;4.78;;
44204;SDS011;30163;42.698;23.344;2023-02-03T04:49:36;12.20;;;5.40;;
44204;SDS011;30163;42.698;23.344;2023-02-03T04:52:01;7.88;;;4.55;;
44204;SDS011;30163;42.698;23.344;2023-02-03T04:54:27;8.65;;;5.60;;
44204;SDS011;30163;42.698;23.344;2023-02-03T04:56:52;7.53;;;5.53;;
44204;SDS011;30163;42.698;23.344;2023-02-03T04:59:17;8.23;;;5.78;;
44204;SDS011;30163;42.698;23.344;2023-02-03T05:01:43;13.38;;;6.53;;
44204;SDS011;30163;42.698;23.344;2023-02-03T05:04:08;9.02;;;5.60;;
44204;SDS011;30163;42.698;23.344;2023-02-03T05:06:33;8.98;;;6.32;;
44204;SDS011;30163;42.698;23.344;2023-02-03T05:08:59;7.38;;;5.43;;
44204;SDS011;30163;42.698;23.344;2023-02-03T05:11:25;10.38;;;5.18;;
44204;SDS011;30163;42.698;23.344;2023-02-03T05:13:50;11.38;;;6.47;;
44204;SDS011;30163;42.698;23.344;2023-02-03T05:16:15;7.68;;;5.72;;
44204;SDS011;30163;42.698;23.344;2023-02-03T05:18:41;9.82;;;5.13;;
44204;SDS011;30163;42.698;23.344;2023-02-03T05:21:06;16.23;;;5.45;;
44204;SDS011;30163;42.698;23.344;2023-02-03T05:23:32;7.93;;;5.78;;
44204;SDS011;30163;42.698;23.344;2023-02-03T05:25:57;8.60;;;6.13;;
44204;SDS011;30163;42.698;23.344;2023-02-03T05:28:23;9.20;;;6.32;;
44204;SDS011;30163;42.698;23.344;2023-02-03T05:30:48;9.30;;;6.00;;
44204;SDS011;30163;42.698;23.344;2023-02-03T05:33:13;11.18;;;5.13;;
44204;SDS011;30163;42.698;23.344;2023-02-03T05:35:39;10.40;;;5.25;;
44204;SDS011;30163;42.698;23.344;2023-02-03T05:38:04;9.25;;;6.18;;
44204;SDS011;30163;42.698;23.344;2023-02-03T05:40:30;6.13;;;5.32;;
44204;SDS011;30163;42.698;23.344;2023-02-03T05:43:13;7.93;;;5.28;;
44204;SDS011;30163;42.698;23.344;2023-02-03T05:45:39;13.73;;;6.25;;
44204;SDS011;30163;42.698;23.344;2023-02-03T05:48:04;8.50;;;5.72;;
44204;SDS011;30163;42.698;23.344;2023-02-03T05:50:31;10.20;;;6.55;;
44204;SDS011;30163;42.698;23.344;2023-02-03T05:53:04;12.27;;;5.53;;
44204;SDS011;30163;42.698;23.344;2023-02-03T05:55:30;7.90;;;5.75;;
44204;SDS011;30163;42.698;23.344;2023-02-03T05:57:56;14.90;;;5.28;;
44204;SDS011;30163;42.698;23.344;2023-02-03T06:00:24;9.05;;;6.13;;
44204;SDS011;30163;42.698;23.344;2023-02-03T06:02:53;10.85;;;6.85;;
44204;SDS011;30163;42.698;23.344;2023-02-03T06:05:20;8.52;;;5.20;;
44204;SDS011;30163;42.698;23.344;2023-02-03T06:07:46;7.55;;;4.53;;
44204;SDS011;30163;42.698;23.344;2023-02-03T06:10:11;8.57;;;6.47;;
44204;SDS011;30163;42.698;23.344;2023-02-03T06:12:37;4.97;;;4.35;;
44204;SDS011;30163;42.698;23.344;2023-02-03T06:15:02;10.00;;;6.03;;
44204;SDS011;30163;42.698;23.344;2023-02-03T06:17:28;14.32;;;5.20;;
44204;SDS011;30163;42.698;23.344;2023-02-03T06:19:53;14.02;;;7.05;;
44204;SDS011;30163;42.698;23.344;2023-02-03T06:22:19;11.10;;;4.75;;
44204;SDS011;30163;42.698;23.344;2023-02-03T06:24:44;7.10;;;5.40;;
44204;SDS011;30163;42.698;23.344;2023-02-03T06:27:12;8.52;;;5.03;;
44204;SDS011;30163;42.698;23.344;2023-02-03T06:29:38;9.20;;;5.78;;
44204;SDS011;30163;42.698;23.344;2023-02-03T06:32:03;9.90;;;5.88;;
44204;SDS011;30163;42.698;23.344;2023-02-03T06:34:29;8.20;;;4.72;;
44204;SDS011;30163;42.698;23.344;2023-02-03T06:36:54;18.13;;;6.72;;
44204;SDS011;30163;42.698;23.344;2023-02-03T06:39:20;6.40;;;4.97;;
44204;SDS011;30163;42.698;23.344;2023-02-03T06:41:45;9.90;;;5.60;;
44204;SDS011;30163;42.698;23.344;2023-02-03T06:44:10;14.93;;;6.13;;
44204;SDS011;30163;42.698;23.344;2023-02-03T06:46:36;8.35;;;5.60;;
44204;SDS011;30163;42.698;23.344;2023-02-03T06:49:01;7.22;;;4.72;;
44204;SDS011;30163;42.698;23.344;2023-02-03T06:51:27;5.40;;;4.30;;
44204;SDS011;30163;42.698;23.344;2023-02-03T06:53:52;8.23;;;5.53;;
44204;SDS011;30163;42.698;23.344;2023-02-03T06:56:18;11.80;;;5.10;;
44204;SDS011;30163;42.698;23.344;2023-02-03T06:58:43;10.27;;;5.38;;
44204;SDS011;30163;42.698;23.344;2023-02-03T07:01:08;8.68;;;4.78;;
44204;SDS011;30163;42.698;23.344;2023-02-03T07:03:34;4.95;;;3.15;;
44204;SDS011;30163;42.698;23.344;2023-02-03T07:05:59;6.68;;;3.60;;
44204;SDS011;30163;42.698;23.344;2023-02-03T07:08:25;16.58;;;5.93;;
44204;SDS011;30163;42.698;23.344;2023-02-03T07:10:53;11.38;;;4.45;;
44204;SDS011;30163;42.698;23.344;2023-02-03T07:13:19;7.35;;;5.45;;
44204;SDS011;30163;42.698;23.344;2023-02-03T07:15:44;7.18;;;3.70;;
44204;SDS011;30163;42.698;23.344;2023-02-03T07:18:10;10.77;;;3.97;;
44204;SDS011;30163;42.698;23.344;2023-02-03T07:20:35;8.00;;;5.47;;
44204;SDS011;30163;42.698;23.344;2023-02-03T07:23:00;10.27;;;4.93;;
44204;SDS011;30163;42.698;23.344;2023-02-03T07:25:26;13.55;;;6.18;;
44204;SDS011;30163;42.698;23.344;2023-02-03T07:27:51;15.77;;;7.15;;
44204;SDS011;30163;42.698;23.344;2023-02-03T07:30:17;15.43;;;5.88;;
44204;SDS011;30163;42.698;23.344;2023-02-03T07:32:49;15.20;;;5.55;;
44204;SDS011;30163;42.698;23.344;2023-02-03T07:35:15;9.40;;;5.07;;
44204;SDS011;30163;42.698;23.344;2023-02-03T07:37:41;9.38;;;5.53;;
44204;SDS011;30163;42.698;23.344;2023-02-03T07:40:07;6.13;;;4.32;;
44204;SDS011;30163;42.698;23.344;2023-02-03T07:42:34;13.50;;;5.97;;
44204;SDS011;30163;42.698;23.344;2023-02-03T07:44:59;10.02;;;4.53;;
44204;SDS011;30163;42.698;23.344;2023-02-03T07:47:25;10.35;;;5.65;;
44204;SDS011;30163;42.698;23.344;2023-02-03T07:49:50;11.57;;;3.85;;
44204;SDS011;30163;42.698;23.344;2023-02-03T07:52:15;14.05;;;5.55;;
44204;SDS011;30163;42.698;23.344;2023-02-03T07:54:41;21.63;;;5.18;;
44204;SDS011;30163;42.698;23.344;2023-02-03T07:57:06;9.48;;;4.72;;
44204;SDS011;30163;42.698;23.344;2023-02-03T07:59:31;8.85;;;4.30;;
44204;SDS011;30163;42.698;23.344;2023-02-03T08:01:57;6.75;;;4.38;;
44204;SDS011;30163;42.698;23.344;2023-02-03T08:04:22;12.30;;;4.22;;
44204;SDS011;30163;42.698;23.344;2023-02-03T08:06:48;5.32;;;3.72;;
44204;SDS011;30163;42.698;23.344;2023-02-03T08:09:14;8.73;;;4.22;;
44204;SDS011;30163;42.698;23.344;2023-02-03T08:11:39;7.15;;;4.22;;
44204;SDS011;30163;42.698;23.344;2023-02-03T08:14:04;11.07;;;3.95;;
44204;SDS011;30163;42.698;23.344;2023-02-03T08:16:30;6.72;;;4.55;;
44204;SDS011;30163;42.698;23.344;2023-02-03T08:18:55;10.32;;;4.82;;
44204;SDS011;30163;42.698;23.344;2023-02-03T08:21:21;11.20;;;4.30;;
44204;SDS011;30163;42.698;23.344;2023-02-03T08:23:47;8.27;;;4.65;;
44204;SDS011;30163;42.698;23.344;2023-02-03T08:26:12;8.18;;;3.88;;
44204;SDS011;30163;42.698;23.344;2023-02-03T08:28:38;8.60;;;3.53;;
44204;SDS011;30163;42.698;23.344;2023-02-03T08:31:10;11.65;;;5.07;;
44204;SDS011;30163;42.698;23.344;2023-02-03T08:33:36;13.25;;;5.40;;
44204;SDS011;30163;42.698;23.344;2023-02-03T08:36:02;10.82;;;4.63;;
44204;SDS011;30163;42.698;23.344;2023-02-03T08:38:29;15.02;;;4.97;;
44204;SDS011;30163;42.698;23.344;2023-02-03T08:40:55;7.28;;;3.28;;
44204;SDS011;30163;42.698;23.344;2023-02-03T08:43:20;8.40;;;4.25;;
44204;SDS011;30163;42.698;23.344;2023-02-03T08:45:46;7.97;;;4.90;;
44204;SDS011;30163;42.698;23.344;2023-02-03T08:48:11;14.75;;;4.55;;
44204;SDS011;30163;42.698;23.344;2023-02-03T08:50:36;14.60;;;3.88;;
44204;SDS011;30163;42.698;23.344;2023-02-03T08:53:06;6.05;;;3.35;;
44204;SDS011;30163;42.698;23.344;2023-02-03T08:55:32;6.45;;;2.85;;
44204;SDS011;30163;42.698;23.344;2023-02-03T08:57:58;12.25;;;5.18;;
44204;SDS011;30163;42.698;23.344;2023-02-03T09:00:23;9.05;;;3.50;;
44204;SDS011;30163;42.698;23.344;2023-02-03T09:02:48;13.48;;;3.97;;
44204;SDS011;30163;42.698;23.344;2023-02-03T09:05:14;12.38;;;3.95;;
44204;SDS011;30163;42.698;23.344;2023-02-03T09:07:41;11.90;;;3.20;;
44204;SDS011;30163;42.698;23.344;2023-02-03T09:10:07;17.58;;;4.15;;
44204;SDS011;30163;42.698;23.344;2023-02-03T09:12:32;7.70;;;4.28;;
44204;SDS011;30163;42.698;23.344;2023-02-03T09:14:58;7.85;;;4.20;;
44204;SDS011;30163;42.698;23.344;2023-02-03T09:17:23;13.50;;;3.90;;
44204;SDS011;30163;42.698;23.344;2023-02-03T09:19:49;18.90;;;5.00;;
44204;SDS011;30163;42.698;23.344;2023-02-03T09:22:14;13.50;;;4.35;;
44204;SDS011;30163;42.698;23.344;2023-02-03T09:24:39;7.95;;;3.58;;
44204;SDS011;30163;42.698;23.344;2023-02-03T09:27:05;5.75;;;3.80;;
44204;SDS011;30163;42.698;23.344;2023-02-03T09:29:30;10.40;;;4.28;;
44204;SDS011;30163;42.698;23.344;2023-02-03T09:31:56;5.45;;;3.75;;
44204;SDS011;30163;42.698;23.344;2023-02-03T09:34:21;7.55;;;2.90;;
44204;SDS011;30163;42.698;23.344;2023-02-03T09:36:47;7.18;;;3.72;;
44204;SDS011;30163;42.698;23.344;2023-02-03T09:39:12;4.75;;;2.60;;
44204;SDS011;30163;42.698;23.344;2023-02-03T09:47:23;7.18;;;3.95;;
44204;SDS011;30163;42.698;23.344;2023-02-03T09:49:52;8.30;;;3.45;;
44204;SDS011;30163;42.698;23.344;2023-02-03T09:52:22;8.85;;;4.10;;
44204;SDS011;30163;42.698;23.344;2023-02-03T09:57:24;11.05;;;3.55;;
44204;SDS011;30163;42.698;23.344;2023-02-03T09:59:52;6.70;;;3.38;;
44204;SDS011;30163;42.698;23.344;2023-02-03T10:10:25;9.80;;;4.28;;
44204;SDS011;30163;42.698;23.344;2023-02-03T10:18:05;5.45;;;3.55;;
44204;SDS011;30163;42.698;23.344;2023-02-03T10:20:42;7.75;;;3.40;;
44204;SDS011;30163;42.698;23.344;2023-02-03T10:23:15;5.85;;;3.78;;
44204;SDS011;30163;42.698;23.344;2023-02-03T10:25:44;10.07;;;4.07;;
44204;SDS011;30163;42.698;23.344;2023-02-03T10:28:15;7.05;;;3.75;;
44204;SDS011;30163;42.698;23.344;2023-02-03T10:30:44;6.43;;;3.30;;
44204;SDS011;30163;42.698;23.344;2023-02-03T10:33:14;4.47;;;3.22;;
44204;SDS011;30163;42.698;23.344;2023-02-03T10:38:21;12.13;;;3.70;;
44204;SDS011;30163;42.698;23.344;2023-02-03T10:40:49;13.70;;;3.97;;
44204;SDS011;30163;42.698;23.344;2023-02-03T10:43:15;6.13;;;3.33;;
44204;SDS011;30163;42.698;23.344;2023-02-03T10:45:59;5.32;;;3.75;;
44204;SDS011;30163;42.698;23.344;2023-02-03T10:48:24;4.85;;;3.33;;
44204;SDS011;30163;42.698;23.344;2023-02-03T10:50:50;6.90;;;4.18;;
44204;SDS011;30163;42.698;23.344;2023-02-03T10:53:24;4.60;;;3.25;;
44204;SDS011;30163;42.698;23.344;2023-02-03T10:56:12;6.03;;;3.72;;
44204;SDS011;30163;42.698;23.344;2023-02-03T10:58:49;6.80;;;2.90;;
44204;SDS011;30163;42.698;23.344;2023-02-03T11:01:19;6.95;;;2.33;;
44204;SDS011;30163;42.698;23.344;2023-02-03T11:04:19;5.55;;;3.08;;
44204;SDS011;30163;42.698;23.344;2023-02-03T11:06:53;5.20;;;3.00;;
44204;SDS011;30163;42.698;23.344;2023-02-03T11:09:28;2.85;;;2.47;;
44204;SDS011;30163;42.698;23.344;2023-02-03T11:14:42;7.35;;;2.90;;
44204;SDS011;30163;42.698;23.344;2023-02-03T11:17:25;6.63;;;3.53;;
44204;SDS011;30163;42.698;23.344;2023-02-03T11:20:02;8.32;;;3.53;;
44204;SDS011;30163;42.698;23.344;2023-02-03T11:22:31;5.53;;;3.20;;
44204;SDS011;30163;42.698;23.344;2023-02-03T11:25:01;8.63;;;4.30;;
44204;SDS011;30163;42.698;23.344;2023-02-03T11:27:28;11.60;;;5.10;;
44204;SDS011;30163;42.698;23.344;2023-02-03T11:32:44;6.13;;;3.75;;
44204;SDS011;30163;42.698;23.344;2023-02-03T11:35:20;10.68;;;4.00;;
44204;SDS011;30163;42.698;23.344;2023-02-03T11:37:48;9.48;;;4.05;;
44204;SDS011;30163;42.698;23.344;2023-02-03T11:42:44;11.75;;;4.00;;
44204;SDS011;30163;42.698;23.344;2023-02-03T11:45:27;11.25;;;3.70;;
44204;SDS011;30163;42.698;23.344;2023-02-03T11:47:54;7.85;;;3.42;;
44204;SDS011;30163;42.698;23.344;2023-02-03T11:55:48;6.43;;;3.80;;
44204;SDS011;30163;42.698;23.344;2023-02-03T12:23:02;3.60;;;2.67;;
44204;SDS011;30163;42.698;23.344;2023-02-03T12:25:55;6.63;;;2.63;;
44204;SDS011;30163;42.698;23.344;2023-02-03T12:31:06;3.60;;;2.60;;
44204;SDS011;30163;42.698;23.344;2023-02-03T12:33:38;7.15;;;3.33;;
44204;SDS011;30163;42.698;23.344;2023-02-03T12:36:09;2.33;;;2.05;;
44204;SDS011;30163;42.698;23.344;2023-02-03T12:41:12;4.50;;;2.80;;
44204;SDS011;30163;42.698;23.344;2023-02-03T12:43:43;2.92;;;2.22;;
44204;SDS011;30163;42.698;23.344;2023-02-03T12:51:37;9.18;;;3.47;;
44204;SDS011;30163;42.698;23.344;2023-02-03T12:54:08;7.57;;;2.92;;
44204;SDS011;30163;42.698;23.344;2023-02-03T12:56:57;5.97;;;3.30;;
44204;SDS011;30163;42.698;23.344;2023-02-03T12:59:27;6.10;;;3.55;;
44204;SDS011;30163;42.698;23.344;2023-02-03T13:02:02;7.45;;;3.85;;
44204;SDS011;30163;42.698;23.344;2023-02-03T13:20:23;9.45;;;3.95;;
44204;SDS011;30163;42.698;23.344;2023-02-03T13:22:50;7.55;;;3.63;;
44204;SDS011;30163;42.698;23.344;2023-02-03T13:28:17;6.28;;;3.67;;
44204;SDS011;30163;42.698;23.344;2023-02-03T13:30:59;5.15;;;3.47;;
44204;SDS011;30163;42.698;23.344;2023-02-03T13:39:34;7.78;;;3.13;;
44204;SDS011;30163;42.698;23.344;2023-02-03T13:44:38;10.75;;;5.47;;
44204;SDS011;30163;42.698;23.344;2023-02-03T13:47:04;7.32;;;4.22;;
44204;SDS011;30163;42.698;23.344;2023-02-03T13:49:30;13.95;;;4.05;;
44204;SDS011;30163;42.698;23.344;2023-02-03T13:51:58;7.40;;;3.90;;
44204;SDS011;30163;42.698;23.344;2023-02-03T13:54:28;6.68;;;3.92;;
44204;SDS011;30163;42.698;23.344;2023-02-03T13:56:59;8.70;;;4.28;;
44204;SDS011;30163;42.698;23.344;2023-02-03T14:02:37;7.53;;;4.47;;
44204;SDS011;30163;42.698;23.344;2023-02-03T14:04:55;9.27;;;4.60;;
44204;SDS011;30163;42.698;23.344;2023-02-03T14:22:49;15.88;;;4.50;;
44204;SDS011;30163;42.698;23.344;2023-02-03T14:25:15;17.67;;;4.60;;
44204;SDS011;30163;42.698;23.344;2023-02-03T14:27:42;8.43;;;5.10;;
44204;SDS011;30163;42.698;23.344;2023-02-03T14:30:14;7.30;;;4.60;;
44204;SDS011;30163;42.698;23.344;2023-02-03T14:32:47;6.30;;;3.40;;
44204;SDS011;30163;42.698;23.344;2023-02-03T14:35:17;9.95;;;5.28;;
44204;SDS011;30163;42.698;23.344;2023-02-03T14:37:51;12.23;;;5.43;;
44204;SDS011;30163;42.698;23.344;2023-02-03T14:40:37;9.63;;;6.07;;
44204;SDS011;30163;42.698;23.344;2023-02-03T14:51:27;11.80;;;6.20;;
44204;SDS011;30163;42.698;23.344;2023-02-03T14:59:55;10.18;;;5.90;;
44204;SDS011;30163;42.698;23.344;2023-02-03T15:02:24;18.15;;;6.32;;
44204;SDS011;30163;42.698;23.344;2023-02-03T15:07:41;7.13;;;3.72;;
44204;SDS011;30163;42.698;23.344;2023-02-03T15:10:54;9.73;;;4.15;;
44204;SDS011;30163;42.698;23.344;2023-02-03T15:13:03;8.32;;;4.00;;
44204;SDS011;30163;42.698;23.344;2023-02-03T15:15:29;16.45;;;7.80;;
44204;SDS011;30163;42.698;23.344;2023-02-03T15:18:21;22.63;;;8.13;;
44204;SDS011;30163;42.698;23.344;2023-02-03T15:20:55;16.50;;;4.85;;
44204;SDS011;30163;42.698;23.344;2023-02-03T15:23:25;6.65;;;4.13;;
44204;SDS011;30163;42.698;23.344;2023-02-03T15:26:02;8.35;;;4.32;;
44204;SDS011;30163;42.698;23.344;2023-02-03T15:28:39;8.43;;;3.65;;
44204;SDS011;30163;42.698;23.344;2023-02-03T15:31:05;8.70;;;4.47;;
44204;SDS011;30163;42.698;23.344;2023-02-03T15:33:44;17.35;;;7.00;;
44204;SDS011;30163;42.698;23.344;2023-02-03T15:36:14;9.85;;;5.13;;
44204;SDS011;30163;42.698;23.344;2023-02-03T15:38:44;11.70;;;5.40;;
44204;SDS011;30163;42.698;23.344;2023-02-03T15:41:18;12.50;;;4.53;;
44204;SDS011;30163;42.698;23.344;2023-02-03T15:43:49;15.82;;;5.80;;
44204;SDS011;30163;42.698;23.344;2023-02-03T15:46:37;10.85;;;6.78;;
44204;SDS011;30163;42.698;23.344;2023-02-03T15:49:12;19.15;;;8.30;;
44204;SDS011;30163;42.698;23.344;2023-02-03T15:54:15;26.90;;;8.63;;
44204;SDS011;30163;42.698;23.344;2023-02-03T15:56:44;20.15;;;7.72;;
44204;SDS011;30163;42.698;23.344;2023-02-03T15:59:22;20.02;;;8.00;;
44204;SDS011;30163;42.698;23.344;2023-02-03T16:01:50;20.10;;;8.77;;
44204;SDS011;30163;42.698;23.344;2023-02-03T16:04:17;20.77;;;7.45;;
44204;SDS011;30163;42.698;23.344;2023-02-03T16:06:47;23.35;;;7.90;;
44204;SDS011;30163;42.698;23.344;2023-02-03T16:09:28;13.27;;;6.35;;
44204;SDS011;30163;42.698;23.344;2023-02-03T16:14:33;14.73;;;5.50;;
44204;SDS011;30163;42.698;23.344;2023-02-03T16:17:00;11.90;;;6.13;;
44204;SDS011;30163;42.698;23.344;2023-02-03T16:19:26;10.82;;;4.45;;
44204;SDS011;30163;42.698;23.344;2023-02-03T16:21:54;12.00;;;5.65;;
44204;SDS011;30163;42.698;23.344;2023-02-03T16:24:40;12.68;;;5.68;;
44204;SDS011;30163;42.698;23.344;2023-02-03T16:29:54;13.90;;;6.35;;
44204;SDS011;30163;42.698;23.344;2023-02-03T16:33:09;13.07;;;5.50;;
44204;SDS011;30163;42.698;23.344;2023-02-03T16:35:57;17.48;;;5.97;;
44204;SDS011;30163;42.698;23.344;2023-02-03T16:38:44;16.30;;;6.55;;
44204;SDS011;30163;42.698;23.344;2023-02-03T16:41:31;21.02;;;8.10;;
44204;SDS011;30163;42.698;23.344;2023-02-03T16:44:15;13.80;;;6.10;;
44204;SDS011;30163;42.698;23.344;2023-02-03T16:47:00;24.98;;;7.65;;
44204;SDS011;30163;42.698;23.344;2023-02-03T16:49:44;12.02;;;5.70;;
44204;SDS011;30163;42.698;23.344;2023-02-03T16:52:28;17.05;;;6.85;;
44204;SDS011;30163;42.698;23.344;2023-02-03T16:54:54;13.95;;;6.13;;
44204;SDS011;30163;42.698;23.344;2023-02-03T16:57:19;10.65;;;6.00;;
44204;SDS011;30163;42.698;23.344;2023-02-03T16:59:45;12.75;;;5.63;;
44204;SDS011;30163;42.698;23.344;2023-02-03T17:02:10;15.18;;;6.68;;
44204;SDS011;30163;42.698;23.344;2023-02-03T17:04:35;9.55;;;4.88;;
44204;SDS011;30163;42.698;23.344;2023-02-03T17:07:01;23.17;;;7.05;;
44204;SDS011;30163;42.698;23.344;2023-02-03T17:09:29;14.98;;;6.28;;
44204;SDS011;30163;42.698;23.344;2023-02-03T17:11:59;20.90;;;7.25;;
44204;SDS011;30163;42.698;23.344;2023-02-03T17:14:25;16.13;;;7.22;;
44204;SDS011;30163;42.698;23.344;2023-02-03T17:16:51;18.98;;;7.35;;
44204;SDS011;30163;42.698;23.344;2023-02-03T17:19:16;21.65;;;9.27;;
44204;SDS011;30163;42.698;23.344;2023-02-03T17:21:42;20.00;;;9.48;;
44204;SDS011;30163;42.698;23.344;2023-02-03T17:24:07;32.55;;;11.88;;
44204;SDS011;30163;42.698;23.344;2023-02-03T17:26:33;42.25;;;14.13;;
44204;SDS011;30163;42.698;23.344;2023-02-03T17:28:58;35.42;;;15.40;;
44204;SDS011;30163;42.698;23.344;2023-02-03T17:31:27;40.53;;;13.32;;
44204;SDS011;30163;42.698;23.344;2023-02-03T17:33:53;29.88;;;12.82;;
44204;SDS011;30163;42.698;23.344;2023-02-03T17:36:19;123.28;;;38.13;;
44204;SDS011;30163;42.698;23.344;2023-02-03T17:38:46;33.40;;;12.77;;
44204;SDS011;30163;42.698;23.344;2023-02-03T17:41:14;32.25;;;12.80;;